createdAt,value
2018-03-18T00:02:21.073Z,5.53
2018-03-18T00:07:23.547Z,6.17
2018-03-18T00:12:26.025Z,5.97
2018-03-18T00:17:28.499Z,6.00
2018-03-18T00:22:30.977Z,5.60
2018-03-18T00:27:33.461Z,5.97
2018-03-18T00:32:36.095Z,5.73
2018-03-18T00:37:39.525Z,5.50
2018-03-18T00:42:42.064Z,5.70
2018-03-18T00:47:44.593Z,5.77
2018-03-18T00:52:47.079Z,5.07
2018-03-18T00:57:49.609Z,5.60
2018-03-18T01:02:52.083Z,5.70
2018-03-18T01:07:54.585Z,5.90
2018-03-18T01:12:57.160Z,5.20
2018-03-18T01:17:59.637Z,5.23
2018-03-18T01:23:02.164Z,5.87
2018-03-18T01:28:04.662Z,5.60
2018-03-18T01:33:07.244Z,4.87
2018-03-18T01:38:09.739Z,5.00
2018-03-18T01:43:12.253Z,5.47
2018-03-18T01:48:14.723Z,5.27
2018-03-18T01:53:21.997Z,5.23
2018-03-18T01:58:24.500Z,4.67
2018-03-18T02:03:26.997Z,5.60
2018-03-18T02:08:29.547Z,4.97
2018-03-18T02:13:32.068Z,5.07
2018-03-18T02:18:34.890Z,5.50
2018-03-18T02:23:37.392Z,4.93
2018-03-18T02:28:39.929Z,5.50
2018-03-18T02:33:42.443Z,4.57
2018-03-18T02:38:44.951Z,5.40
2018-03-18T02:43:47.417Z,4.57
2018-03-18T02:48:49.882Z,3.90
2018-03-18T02:53:52.344Z,4.20
2018-03-18T02:58:54.820Z,4.70
2018-03-18T03:03:58.110Z,4.53
2018-03-18T03:09:00.584Z,4.33
2018-03-18T03:14:03.388Z,4.60
2018-03-18T03:19:06.091Z,5.07
2018-03-18T03:24:08.593Z,4.40
2018-03-18T03:29:11.152Z,4.50
2018-03-18T03:34:13.692Z,4.07
2018-03-18T03:39:16.164Z,4.57
2018-03-18T03:44:18.643Z,4.50
2018-03-18T03:49:21.184Z,4.47
2018-03-18T03:54:23.690Z,4.30
2018-03-18T03:59:26.188Z,4.20
2018-03-18T04:04:28.838Z,4.50
2018-03-18T04:09:31.353Z,4.27
2018-03-18T04:14:33.825Z,4.10
2018-03-18T04:19:36.834Z,3.50
2018-03-18T04:24:39.727Z,4.33
2018-03-18T04:29:42.480Z,4.23
2018-03-18T04:34:45.223Z,3.90
2018-03-18T04:39:47.891Z,4.20
2018-03-18T04:44:50.459Z,4.13
2018-03-18T04:49:52.979Z,3.77
2018-03-18T04:54:55.481Z,4.07
2018-03-18T04:59:57.993Z,4.57
2018-03-18T05:05:00.470Z,3.87
2018-03-18T05:10:02.956Z,4.33
2018-03-18T05:15:05.857Z,3.73
2018-03-18T05:20:09.549Z,3.30
2018-03-18T05:25:12.340Z,3.43
2018-03-18T05:30:15.031Z,3.33
2018-03-18T05:35:17.674Z,4.07
2018-03-18T05:40:20.218Z,4.00
2018-03-18T05:45:22.711Z,3.90
2018-03-18T05:50:25.409Z,4.10
2018-03-18T05:55:27.910Z,3.27
2018-03-18T06:00:30.421Z,4.03
2018-03-18T06:05:32.887Z,2.73
2018-03-18T06:10:35.408Z,3.40
2018-03-18T06:15:39.404Z,3.60
2018-03-18T06:20:41.958Z,3.70
2018-03-18T06:25:44.412Z,3.33
2018-03-18T06:30:46.934Z,3.47
2018-03-18T06:35:49.407Z,4.13
2018-03-18T06:40:51.937Z,4.10
2018-03-18T06:45:54.427Z,3.37
2018-03-18T06:50:56.878Z,3.97
2018-03-18T06:55:59.398Z,3.70
2018-03-18T07:01:01.937Z,3.70
2018-03-18T07:06:04.451Z,3.27
2018-03-18T07:11:07.106Z,3.33
2018-03-18T07:16:09.763Z,3.37
2018-03-18T07:21:12.280Z,3.47
2018-03-18T07:26:14.860Z,3.97
2018-03-18T07:31:17.398Z,3.20
2018-03-18T07:36:19.881Z,4.03
2018-03-18T07:41:22.354Z,3.50
2018-03-18T07:46:24.825Z,3.47
2018-03-18T07:51:27.305Z,3.30
2018-03-18T07:56:29.760Z,3.37
2018-03-18T08:01:32.236Z,3.63
2018-03-18T08:06:34.741Z,3.53
2018-03-18T08:11:37.350Z,3.50
2018-03-18T08:16:39.935Z,2.57
2018-03-18T08:21:42.440Z,3.07
2018-03-18T08:26:44.926Z,3.60
2018-03-18T08:31:47.413Z,3.33
2018-03-18T08:36:50.018Z,2.93
2018-03-18T08:41:52.497Z,3.10
2018-03-18T08:46:55.076Z,2.93
2018-03-18T08:51:58.280Z,3.00
2018-03-18T08:57:00.769Z,3.00
2018-03-18T09:02:03.217Z,3.10
2018-03-18T09:07:05.811Z,2.80
2018-03-18T09:12:08.307Z,2.60
2018-03-18T09:17:10.810Z,3.10
2018-03-18T09:22:13.405Z,2.33
2018-03-18T09:27:15.920Z,2.63
2018-03-18T09:32:18.413Z,2.30
2018-03-18T09:37:20.874Z,3.30
2018-03-18T09:42:23.350Z,2.45
2018-03-18T09:47:25.831Z,2.67
2018-03-18T09:52:28.322Z,2.87
2018-03-18T09:57:30.841Z,2.50
2018-03-18T10:02:33.361Z,2.70
2018-03-18T10:07:35.950Z,3.07
2018-03-18T10:12:38.955Z,3.00
2018-03-18T10:17:41.490Z,2.63
2018-03-18T10:22:44.034Z,2.83
2018-03-18T10:27:46.583Z,2.80
2018-03-18T10:32:49.191Z,2.60
2018-03-18T10:37:51.696Z,3.13
2018-03-18T10:42:54.259Z,2.27
2018-03-18T10:47:56.735Z,2.70
2018-03-18T10:52:59.194Z,3.25
2018-03-18T10:58:01.664Z,2.23
2018-03-18T11:03:04.759Z,2.60
2018-03-18T11:08:07.300Z,2.70
2018-03-18T11:13:09.867Z,2.70
2018-03-18T11:18:12.344Z,2.60
2018-03-18T11:23:14.913Z,2.43
2018-03-18T11:28:17.504Z,2.10
2018-03-18T11:33:20.347Z,2.70
2018-03-18T11:38:24.926Z,2.50
2018-03-18T11:43:27.439Z,2.43
2018-03-18T11:48:30.331Z,2.73
2018-03-18T11:53:32.834Z,2.43
2018-03-18T11:58:36.148Z,2.53
2018-03-18T12:03:38.750Z,2.83
2018-03-18T12:09:00.647Z,2.37
2018-03-18T12:14:03.212Z,2.50
2018-03-18T12:19:05.827Z,2.30
2018-03-18T12:24:09.690Z,2.67
2018-03-18T12:29:12.371Z,2.37
2018-03-18T12:34:15.482Z,2.60
2018-03-18T12:39:19.177Z,2.60
2018-03-18T12:44:21.700Z,2.80
2018-03-18T12:49:24.302Z,2.37
2018-03-18T12:54:26.804Z,2.80
2018-03-18T12:59:29.545Z,2.37
2018-03-18T13:04:32.444Z,2.20
2018-03-18T13:09:35.707Z,2.67
2018-03-18T13:14:38.275Z,2.70
2018-03-18T13:19:41.770Z,2.90
2018-03-18T13:24:44.743Z,2.40
2018-03-18T13:29:47.224Z,2.73
2018-03-18T13:34:49.708Z,2.17
2018-03-18T13:39:52.241Z,2.50
2018-03-18T13:45:00.998Z,2.43
2018-03-18T13:50:08.976Z,2.60
2018-03-18T13:55:11.534Z,2.30
2018-03-18T14:00:14.098Z,2.70
2018-03-18T14:05:18.969Z,2.77
2018-03-18T14:10:21.537Z,2.87
2018-03-18T14:15:24.059Z,2.37
2018-03-18T14:20:26.528Z,2.20
2018-03-18T14:25:29.073Z,3.10
2018-03-18T14:30:31.576Z,3.20
2018-03-18T14:35:34.094Z,2.30
2018-03-18T14:40:36.618Z,2.43
2018-03-18T14:45:39.108Z,2.30
2018-03-18T14:50:41.638Z,3.13
2018-03-18T14:55:44.149Z,2.60
2018-03-18T15:00:46.781Z,2.50
2018-03-18T15:05:49.287Z,2.27
2018-03-18T15:10:51.754Z,2.67
2018-03-18T15:15:54.242Z,2.80
2018-03-18T15:20:56.698Z,2.43
2018-03-18T15:25:59.185Z,2.50
2018-03-18T15:31:01.716Z,2.33
2018-03-18T15:36:04.880Z,2.47
2018-03-18T15:41:07.483Z,2.90
2018-03-18T15:46:10.103Z,2.80
2018-03-18T15:51:12.705Z,2.43
2018-03-18T15:56:15.258Z,2.33
2018-03-18T16:01:17.776Z,2.97
2018-03-18T16:06:20.271Z,3.00
2018-03-18T16:11:22.790Z,2.70
2018-03-18T16:16:25.275Z,2.63
2018-03-18T16:21:27.793Z,2.70
2018-03-18T16:26:30.323Z,3.20
2018-03-18T16:31:32.791Z,2.83
2018-03-18T16:36:35.285Z,2.93
2018-03-18T16:41:37.848Z,2.07
2018-03-18T16:46:40.387Z,3.03
2018-03-18T16:51:42.914Z,3.03
2018-03-18T16:56:45.421Z,2.80
2018-03-18T17:01:47.889Z,3.03
2018-03-18T17:06:50.371Z,2.70
2018-03-18T17:11:52.888Z,2.50
2018-03-18T17:16:56.621Z,3.20
2018-03-18T17:21:59.099Z,2.83
2018-03-18T17:27:01.605Z,3.23
2018-03-18T17:32:04.121Z,3.27
2018-03-18T17:37:06.623Z,3.03
2018-03-18T17:42:09.163Z,2.80
2018-03-18T17:52:58.440Z,3.07
2018-03-18T17:58:00.907Z,2.90
2018-03-18T18:03:03.414Z,2.70
2018-03-18T18:08:06.034Z,3.13
2018-03-18T18:13:09.893Z,3.00
2018-03-18T18:18:13.028Z,3.07
2018-03-18T18:23:16.039Z,3.30
2018-03-18T18:28:18.522Z,2.90
2018-03-18T18:33:20.989Z,2.87
2018-03-18T18:38:23.468Z,3.23
2018-03-18T18:43:25.954Z,3.23
2018-03-18T18:48:28.418Z,3.03
2018-03-18T18:53:30.908Z,2.73
2018-03-18T18:58:33.660Z,3.63
2018-03-18T19:03:36.233Z,3.30
2018-03-18T19:08:39.115Z,3.53
2018-03-18T19:14:02.688Z,3.57
2018-03-18T19:19:07.611Z,3.20
2018-03-18T19:24:10.585Z,3.20
2018-03-18T19:29:13.306Z,3.93
2018-03-18T19:34:16.290Z,4.13
2018-03-18T19:39:18.845Z,2.80
2018-03-18T19:44:21.630Z,3.77
2018-03-18T19:49:24.199Z,3.43
2018-03-18T19:54:26.713Z,3.57
2018-03-18T19:59:29.246Z,3.30
2018-03-18T20:04:31.740Z,3.47
2018-03-18T20:09:34.751Z,3.77
2018-03-18T20:14:37.255Z,3.73
2018-03-18T20:19:39.808Z,3.17
2018-03-18T20:24:42.796Z,4.03
2018-03-18T20:29:45.642Z,3.90
2018-03-18T20:34:48.188Z,3.50
2018-03-18T20:39:51.135Z,3.30
2018-03-18T20:44:53.629Z,3.77
2018-03-18T20:49:56.111Z,3.27
2018-03-18T20:54:58.594Z,3.50
2018-03-18T21:00:01.068Z,3.70
2018-03-18T21:05:03.599Z,3.17
2018-03-18T21:10:06.204Z,3.33
2018-03-18T21:15:08.764Z,3.43
2018-03-18T21:20:11.276Z,3.80
2018-03-18T21:25:13.821Z,3.40
2018-03-18T21:30:16.322Z,3.83
2018-03-18T21:35:18.829Z,3.63
2018-03-18T21:40:21.304Z,3.70
2018-03-18T21:45:23.757Z,3.67
2018-03-18T21:50:26.242Z,3.93
2018-03-18T21:55:28.716Z,3.73
2018-03-18T22:00:31.233Z,3.57
2018-03-18T22:05:34.309Z,3.57
2018-03-18T22:10:36.804Z,3.97
2018-03-18T22:15:39.322Z,3.60
2018-03-18T22:20:41.845Z,3.30
2018-03-18T22:25:44.352Z,3.77
2018-03-18T22:30:46.830Z,4.07
2018-03-18T22:35:49.307Z,4.20
2018-03-18T22:40:51.769Z,3.80
2018-03-18T22:45:54.260Z,3.70
2018-03-18T22:50:56.732Z,4.30
2018-03-18T22:55:59.256Z,4.40
2018-03-18T23:01:01.762Z,4.50
2018-03-18T23:06:04.270Z,4.30
2018-03-18T23:11:07.672Z,3.90
2018-03-18T23:16:10.257Z,4.30
2018-03-18T23:21:12.814Z,3.43
2018-03-18T23:26:15.374Z,3.63
2018-03-18T23:31:17.858Z,3.67
2018-03-18T23:36:20.350Z,4.97
2018-03-18T23:41:22.818Z,4.77
2018-03-18T23:46:25.306Z,4.57
2018-03-18T23:51:27.810Z,4.30
2018-03-18T23:56:30.276Z,4.23
